Time;durP1;ratioP1;P1;durP2;ratioP2;P2;SDS_P1;SDS_P2;PMS_P1;PMS_P2;Temp;Humidity;BMP_temperature;BMP_pressure;BME280_temperature;BME280_humidity;BME280_pressure;Samples;Min_cycle;Max_cycle;Signal;HPM_P1;HPM_P2
2022/12/31 00:04:48;;;;;;;0.90;0.60;;;;;13.50;99756.00;;;;10492213;28;20255;-78
2022/12/31 00:09:50;;;;;;;2.05;0.90;;;;;13.50;99754.00;;;;10474177;28;20216;-79
2022/12/31 00:14:52;;;;;;;3.35;0.70;;;;;13.50;99743.00;;;;10484764;28;20192;-79
2022/12/31 00:19:54;;;;;;;0.65;0.65;;;;;13.40;99714.00;;;;10480561;28;20211;-79
2022/12/31 00:24:56;;;;;;;0.40;0.40;;;;;13.40;99738.00;;;;10469321;28;20225;-80
2022/12/31 00:29:58;;;;;;;0.60;0.60;;;;;13.40;99730.00;;;;10505353;28;20217;-79
2022/12/31 00:35:06;;;;;;;1.73;0.50;;;;;13.50;99705.00;;;;10473288;28;20731;-79
2022/12/31 00:40:09;;;;;;;0.50;0.50;;;;;13.60;99692.00;;;;10506900;28;20242;-79
2022/12/31 00:45:10;;;;;;;0.50;0.40;;;;;13.70;99690.00;;;;10481197;28;20721;-78
2022/12/31 00:50:12;;;;;;;0.40;0.40;;;;;13.80;99695.00;;;;10501123;28;20224;-79
2022/12/31 00:55:14;;;;;;;1.27;0.43;;;;;14.00;99718.00;;;;10511077;28;20193;-79
2022/12/31 01:00:16;;;;;;;1.00;0.43;;;;;14.10;99709.00;;;;10491952;28;20686;-78
2022/12/31 01:05:18;;;;;;;3.38;0.43;;;;;14.30;99710.00;;;;10501526;28;20197;-79
2022/12/31 01:11:17;;;;;;;0.32;0.30;;;;;14.50;99733.00;;;;10501031;28;20245;-78
2022/12/31 01:15:42;;;;;;;0.30;0.30;;;;;14.40;99754.00;;;;10491884;28;20276;-78
2022/12/31 01:20:44;;;;;;;1.48;0.22;;;;;14.10;99762.00;;;;10504399;28;20192;-79
2022/12/31 01:25:46;;;;;;;0.30;0.30;;;;;13.90;99804.00;;;;10497065;28;20224;-79
2022/12/31 01:30:49;;;;;;;1.10;0.40;;;;;13.80;99807.00;;;;10464634;28;20204;-80
2022/12/31 01:35:51;;;;;;;1.05;0.75;;;;;13.60;99825.00;;;;10470957;28;20197;-82
2022/12/31 01:40:53;;;;;;;1.63;0.30;;;;;13.30;99837.00;;;;10465219;28;20196;-80
2022/12/31 01:45:54;;;;;;;0.25;0.25;;;;;13.20;99812.00;;;;10458983;28;20714;-79
2022/12/31 01:50:56;;;;;;;1.10;0.90;;;;;13.20;99829.00;;;;10507096;28;20209;-79
2022/12/31 01:55:59;;;;;;;1.60;0.65;;;;;13.20;99837.00;;;;10488226;28;20184;-80
2022/12/31 02:01:01;;;;;;;1.42;0.28;;;;;13.20;99828.00;;;;10494307;28;20190;-79
2022/12/31 02:06:20;;;;;;;0.77;0.35;;;;;13.30;99822.00;;;;10464338;28;20189;-79
2022/12/31 02:11:30;;;;;;;0.40;0.28;;;;;13.30;99813.00;;;;10469570;28;20250;-79
2022/12/31 02:16:58;;;;;;;0.63;0.40;;;;;13.40;99804.00;;;;10480851;28;20200;-79
2022/12/31 02:22:25;;;;;;;0.30;0.30;;;;;13.60;99829.00;;;;10489850;28;20189;-79
2022/12/31 02:27:50;;;;;;;0.40;0.40;;;;;13.70;99831.00;;;;10498262;28;20217;-79
2022/12/31 02:33:07;;;;;;;1.17;0.47;;;;;13.80;99832.00;;;;10453585;28;20192;-78
2022/12/31 02:38:14;;;;;;;0.30;0.30;;;;;13.80;99820.00;;;;10521550;28;20202;-79
2022/12/31 02:43:16;;;;;;;3.85;0.70;;;;;13.80;99818.00;;;;10501329;28;20208;-79
2022/12/31 02:48:37;;;;;;;1.10;0.43;;;;;13.90;99824.00;;;;10466041;28;20296;-79
2022/12/31 02:53:53;;;;;;;1.48;0.43;;;;;14.00;99811.00;;;;10463447;28;20292;-78
2022/12/31 03:04:32;;;;;;;1.50;0.50;;;;;13.90;99795.00;;;;10480387;28;20256;-79
2022/12/31 03:09:36;;;;;;;2.00;0.50;;;;;13.90;99800.00;;;;10478500;28;20248;-78
2022/12/31 03:14:38;;;;;;;0.85;0.50;;;;;14.00;99791.00;;;;10504263;28;20256;-79
2022/12/31 03:30:33;;;;;;;2.67;0.90;;;;;14.30;99782.00;;;;10468687;28;20193;-78
2022/12/31 03:35:37;;;;;;;2.80;0.57;;;;;14.40;99793.00;;;;10505258;28;20563;-77
2022/12/31 03:40:41;;;;;;;2.35;0.50;;;;;14.50;99781.00;;;;10482624;28;20185;-78
2022/12/31 03:45:43;;;;;;;2.80;0.70;;;;;14.50;99780.00;;;;10506228;28;20658;-78
2022/12/31 03:50:45;;;;;;;1.05;0.47;;;;;14.60;99785.00;;;;10476781;28;20212;-77
2022/12/31 03:55:53;;;;;;;2.17;0.50;;;;;14.70;99792.00;;;;10477302;28;20767;-78
2022/12/31 04:00:55;;;;;;;1.08;0.55;;;;;14.70;99810.00;;;;10465100;28;20280;-77
2022/12/31 04:05:57;;;;;;;1.42;0.40;;;;;14.90;99820.00;;;;10487790;28;20197;-78
2022/12/31 04:10:59;;;;;;;0.98;0.43;;;;;15.00;99840.00;;;;10498291;28;20291;-77
2022/12/31 04:16:01;;;;;;;1.67;0.30;;;;;15.00;99837.00;;;;10475948;28;20307;-78
2022/12/31 04:21:04;;;;;;;2.90;0.40;;;;;15.00;99848.00;;;;10455998;28;20660;-77
2022/12/31 04:26:05;;;;;;;2.25;0.60;;;;;15.00;99857.00;;;;10484294;28;20655;-78
2022/12/31 04:31:07;;;;;;;3.83;0.57;;;;;15.10;99863.00;;;;10486216;28;20247;-77
2022/12/31 04:36:09;;;;;;;1.95;0.65;;;;;14.90;99868.00;;;;10476643;28;20646;-77
2022/12/31 04:41:17;;;;;;;1.70;0.60;;;;;14.70;99859.00;;;;10494604;28;20189;-78
2022/12/31 04:46:29;;;;;;;2.42;0.38;;;;;14.60;99856.00;;;;10466126;28;20206;-77
2022/12/31 04:51:31;;;;;;;4.70;0.95;;;;;14.60;99871.00;;;;10522166;28;20257;-77
2022/12/31 04:56:35;;;;;;;2.67;0.93;;;;;14.80;99863.00;;;;10462073;28;20274;-77
2022/12/31 05:01:38;;;;;;;1.40;0.43;;;;;15.00;99883.00;;;;10488063;28;20220;-77
2022/12/31 05:06:40;;;;;;;1.65;0.70;;;;;15.10;99885.00;;;;10483675;28;20189;-77
2022/12/31 05:11:42;;;;;;;0.75;0.30;;;;;15.20;99882.00;;;;10479660;28;20606;-78
2022/12/31 05:16:44;;;;;;;2.92;0.75;;;;;15.40;99898.00;;;;10491247;28;20193;-77
2022/12/31 05:22:27;;;;;;;1.50;0.50;;;;;15.40;99901.00;;;;10504013;28;20216;-78
2022/12/31 05:27:08;;;;;;;1.33;0.38;;;;;15.30;99894.00;;;;10512275;28;20229;-77
2022/12/31 05:32:10;;;;;;;4.32;0.68;;;;;15.40;99906.00;;;;10478573;28;20211;-77
2022/12/31 05:37:11;;;;;;;2.38;0.57;;;;;15.50;99923.00;;;;10484276;28;20244;-78
2022/12/31 05:42:13;;;;;;;0.88;0.40;;;;;15.50;99917.00;;;;10471240;28;20287;-77
2022/12/31 05:47:16;;;;;;;2.78;0.75;;;;;15.50;99925.00;;;;10512176;28;20243;-78
2022/12/31 05:52:18;;;;;;;1.08;0.43;;;;;15.50;99929.00;;;;10473631;28;20551;-78
2022/12/31 05:57:20;;;;;;;1.67;0.98;;;;;15.50;99935.00;;;;10472663;28;20193;-78
2022/12/31 06:02:22;;;;;;;1.95;0.52;;;;;15.60;99947.00;;;;10479672;28;20193;-77
2022/12/31 06:07:24;;;;;;;1.52;0.65;;;;;15.70;99936.00;;;;10472411;28;20243;-78
2022/12/31 06:12:26;;;;;;;0.98;0.47;;;;;15.70;99939.00;;;;10492282;28;20216;-78
2022/12/31 06:17:29;;;;;;;2.83;0.63;;;;;15.70;99956.00;;;;10509232;28;20188;-77
2022/12/31 06:22:30;;;;;;;5.07;1.02;;;;;15.40;99954.00;;;;10498529;28;20245;-77
2022/12/31 06:27:32;;;;;;;1.52;0.80;;;;;15.50;99945.00;;;;10490390;28;20218;-77
2022/12/31 06:32:34;;;;;;;2.63;0.80;;;;;15.40;99950.00;;;;10488715;28;20671;-78
2022/12/31 06:37:36;;;;;;;1.35;0.60;;;;;15.30;99968.00;;;;10488875;28;20185;-76
2022/12/31 06:42:39;;;;;;;3.13;0.80;;;;;15.50;99972.00;;;;10498992;28;20196;-78
2022/12/31 06:47:41;;;;;;;1.23;0.40;;;;;15.70;99946.00;;;;10472775;28;20563;-78
2022/12/31 06:52:42;;;;;;;3.30;1.10;;;;;15.70;99968.00;;;;10475024;28;20226;-77
2022/12/31 06:57:44;;;;;;;2.53;0.60;;;;;15.70;99985.00;;;;10490407;28;20268;-77
2022/12/31 07:03:20;;;;;;;2.38;0.57;;;;;15.70;99978.00;;;;10449524;28;20194;-78
2022/12/31 07:08:35;;;;;;;2.90;0.73;;;;;15.30;100012.00;;;;10465799;28;20300;-77
2022/12/31 07:13:58;;;;;;;0.57;0.47;;;;;14.70;100015.00;;;;10486938;28;20198;-78
2022/12/31 07:19:23;;;;;;;2.53;0.35;;;;;14.50;99991.00;;;;10486472;28;20184;-77
2022/12/31 07:24:26;;;;;;;3.40;0.70;;;;;14.50;100009.00;;;;10512079;28;20286;-77
2022/12/31 07:29:49;;;;;;;2.78;1.02;;;;;14.50;99994.00;;;;10487676;28;20200;-78
2022/12/31 07:35:11;;;;;;;1.98;0.77;;;;;14.50;99999.00;;;;10505403;28;20217;-77
2022/12/31 07:40:19;;;;;;;2.22;1.08;;;;;14.70;100021.00;;;;10475598;28;20204;-77
2022/12/31 07:45:48;;;;;;;2.00;0.80;;;;;14.80;100047.00;;;;10476552;28;20196;-76
2022/12/31 07:50:53;;;;;;;3.08;0.80;;;;;14.70;100042.00;;;;10461090;28;20735;-77
2022/12/31 07:55:58;;;;;;;2.28;0.80;;;;;14.50;100070.00;;;;10501776;28;20180;-79
2022/12/31 08:01:01;;;;;;;2.60;0.80;;;;;14.30;100033.00;;;;10470058;28;20803;-78
2022/12/31 08:06:11;;;;;;;4.97;0.98;;;;;14.30;100062.00;;;;10504267;28;20193;-78
2022/12/31 08:11:39;;;;;;;2.92;1.17;;;;;14.30;100068.00;;;;10501787;28;20209;-78
2022/12/31 08:16:41;;;;;;;2.70;1.00;;;;;14.40;100094.00;;;;10486118;28;20714;-77
2022/12/31 08:21:59;;;;;;;3.78;1.30;;;;;14.60;100060.00;;;;10496638;28;20216;-77
2022/12/31 08:27:25;;;;;;;3.95;0.93;;;;;14.80;100053.00;;;;10488579;28;20703;-77
2022/12/31 08:32:42;;;;;;;0.88;0.60;;;;;15.20;100095.00;;;;10501259;28;20189;-77
2022/12/31 08:38:08;;;;;;;2.80;0.60;;;;;15.30;100093.00;;;;10489565;28;20187;-78
2022/12/31 08:43:28;;;;;;;3.75;1.20;;;;;15.50;100117.00;;;;10445353;28;20659;-77
2022/12/31 08:48:42;;;;;;;5.38;1.23;;;;;15.60;100116.00;;;;10493878;28;20205;-78
2022/12/31 08:53:44;;;;;;;9.07;1.10;;;;;15.70;100120.00;;;;10516431;28;20219;-77
2022/12/31 08:59:06;;;;;;;2.30;1.00;;;;;15.90;100137.00;;;;10480908;28;20655;-78
2022/12/31 09:04:28;;;;;;;4.28;0.88;;;;;15.90;100142.00;;;;10501130;28;20203;-77
2022/12/31 09:09:56;;;;;;;4.32;1.45;;;;;15.90;100158.00;;;;10492453;28;20213;-77
2022/12/31 09:15:02;;;;;;;1.85;0.65;;;;;16.00;100159.00;;;;10488764;28;20228;-77
2022/12/31 09:20:05;;;;;;;2.13;0.90;;;;;16.10;100170.00;;;;10495369;28;20250;-79
2022/12/31 09:25:13;;;;;;;3.92;1.00;;;;;16.00;100163.00;;;;10480957;28;20629;-78
2022/12/31 09:30:17;;;;;;;6.40;0.85;;;;;16.00;100170.00;;;;10467729;28;20683;-77
2022/12/31 09:35:47;;;;;;;1.88;1.13;;;;;15.90;100178.00;;;;10477023;28;20281;-77
2022/12/31 09:40:57;;;;;;;3.85;1.00;;;;;15.90;100185.00;;;;10445438;28;20185;-77
2022/12/31 09:46:32;;;;;;;4.05;1.00;;;;;16.10;100212.00;;;;10462695;28;20202;-77
2022/12/31 09:52:13;;;;;;;4.25;1.23;;;;;16.10;100188.00;;;;10434692;28;20238;-77
2022/12/31 09:57:28;;;;;;;4.80;1.60;;;;;16.10;100186.00;;;;10489901;28;20198;-77
2022/12/31 10:02:30;;;;;;;5.28;1.30;;;;;16.00;100195.00;;;;10481880;28;20292;-77
2022/12/31 10:08:01;;;;;;;5.65;1.42;;;;;16.20;100181.00;;;;10497136;28;20213;-77
2022/12/31 10:13:24;;;;;;;4.88;0.95;;;;;16.50;100181.00;;;;10455463;28;20189;-77
2022/12/31 10:18:57;;;;;;;3.70;1.38;;;;;16.50;100208.00;;;;10468259;28;20185;-77
2022/12/31 10:24:18;;;;;;;2.10;0.90;;;;;16.40;100212.00;;;;10472739;28;20229;-77
2022/12/31 10:29:24;;;;;;;2.03;1.20;;;;;16.50;100214.00;;;;10487430;28;20567;-78
2022/12/31 10:34:49;;;;;;;3.55;0.90;;;;;16.50;100231.00;;;;10490262;28;20190;-77
2022/12/31 10:40:16;;;;;;;4.78;1.52;;;;;16.50;100227.00;;;;10476474;28;20579;-77
2022/12/31 10:45:54;;;;;;;4.57;0.98;;;;;16.40;100228.00;;;;10495792;28;20197;-78
2022/12/31 10:51:14;;;;;;;4.78;1.25;;;;;16.30;100220.00;;;;10437089;28;20222;-77
2022/12/31 10:56:53;;;;;;;2.40;1.17;;;;;16.30;100223.00;;;;10497823;28;20465;-77
2022/12/31 11:01:58;;;;;;;5.63;1.20;;;;;16.30;100230.00;;;;10497362;28;20835;-76
2022/12/31 11:07:15;;;;;;;6.10;1.48;;;;;16.40;100241.00;;;;10510355;28;20197;-77
2022/12/31 11:12:32;;;;;;;2.58;1.10;;;;;16.30;100224.00;;;;10493094;28;20201;-77
2022/12/31 11:17:42;;;;;;;6.53;1.92;;;;;15.90;100250.00;;;;10497210;28;20271;-77
2022/12/31 11:23:05;;;;;;;3.85;1.15;;;;;15.60;100261.00;;;;10513055;28;20189;-77
2022/12/31 11:28:25;;;;;;;3.30;1.55;;;;;15.50;100264.00;;;;10477995;28;20217;-77
2022/12/31 11:33:56;;;;;;;6.18;1.60;;;;;15.60;100256.00;;;;10491376;28;20192;-77
2022/12/31 11:39:23;;;;;;;4.47;1.27;;;;;15.90;100251.00;;;;10449990;28;20228;-77
2022/12/31 11:44:56;;;;;;;6.07;1.00;;;;;16.30;100237.00;;;;10463887;28;20563;-77
2022/12/31 11:50:10;;;;;;;4.13;1.23;;;;;16.60;100225.00;;;;10482289;28;20252;-76
2022/12/31 11:55:28;;;;;;;3.75;1.00;;;;;16.80;100233.00;;;;10494883;28;20199;-77
2022/12/31 12:00:31;;;;;;;3.65;1.20;;;;;17.20;100229.00;;;;10490153;28;20211;-78
2022/12/31 12:05:34;;;;;;;4.43;1.40;;;;;17.20;100231.00;;;;10448775;28;20252;-77
2022/12/31 12:10:45;;;;;;;4.25;1.67;;;;;17.10;100221.00;;;;10519033;28;20235;-77
2022/12/31 12:15:50;;;;;;;3.25;1.20;;;;;17.20;100241.00;;;;10499406;28;20188;-76
2022/12/31 12:21:01;;;;;;;5.32;1.50;;;;;17.20;100238.00;;;;10480668;28;20190;-77
2022/12/31 12:26:03;;;;;;;4.47;1.20;;;;;16.90;100248.00;;;;10484237;28;20264;-77
2022/12/31 12:31:04;;;;;;;4.35;1.48;;;;;16.70;100258.00;;;;10484715;28;20252;-77
2022/12/31 12:36:12;;;;;;;4.47;1.25;;;;;16.40;100225.00;;;;10455675;28;20561;-77
2022/12/31 12:41:22;;;;;;;6.30;1.25;;;;;16.20;100255.00;;;;10474188;28;20225;-77
2022/12/31 12:46:34;;;;;;;6.75;2.13;;;;;16.00;100251.00;;;;10479770;28;20284;-76
2022/12/31 12:51:50;;;;;;;7.78;1.45;;;;;15.90;100238.00;;;;10445936;28;20228;-76
2022/12/31 12:57:04;;;;;;;4.82;1.67;;;;;15.70;100229.00;;;;10464126;28;20606;-77
2022/12/31 13:02:41;;;;;;;4.35;1.88;;;;;15.80;100219.00;;;;10465596;28;20280;-76
2022/12/31 13:08:11;;;;;;;9.73;1.30;;;;;16.00;100203.00;;;;10485788;28;20209;-76
2022/12/31 13:13:38;;;;;;;9.07;1.48;;;;;16.10;100210.00;;;;10487436;28;20204;-76
2022/12/31 13:19:20;;;;;;;2.88;1.38;;;;;16.20;100204.00;;;;10487044;28;20187;-77
2022/12/31 13:24:39;;;;;;;6.80;1.60;;;;;16.10;100205.00;;;;10480338;28;20239;-77
2022/12/31 13:29:44;;;;;;;2.90;1.30;;;;;16.20;100220.00;;;;10495882;28;20208;-77
2022/12/31 13:34:50;;;;;;;8.27;1.70;;;;;16.20;100234.00;;;;10480185;28;20194;-77
2022/12/31 13:40:04;;;;;;;7.50;1.85;;;;;16.20;100212.00;;;;10461650;28;20770;-77
2022/12/31 13:45:19;;;;;;;10.48;2.60;;;;;16.10;100223.00;;;;10475622;28;20203;-77
2022/12/31 13:50:26;;;;;;;5.40;1.80;;;;;16.10;100211.00;;;;10436353;28;20698;-77
2022/12/31 13:55:35;;;;;;;8.35;1.70;;;;;16.10;100213.00;;;;10455570;28;20201;-78
2022/12/31 14:00:43;;;;;;;5.05;1.58;;;;;16.30;100205.00;;;;10478401;28;20252;-77
2022/12/31 14:06:05;;;;;;;4.25;1.30;;;;;16.30;100210.00;;;;10451756;28;20258;-77
2022/12/31 14:11:38;;;;;;;6.40;1.80;;;;;16.20;100207.00;;;;10479595;28;20201;-77
2022/12/31 14:17:11;;;;;;;3.83;1.25;;;;;16.00;100224.00;;;;10462097;28;20204;-77
2022/12/31 14:22:32;;;;;;;3.45;1.75;;;;;15.90;100236.00;;;;10445167;28;20197;-78
2022/12/31 14:27:39;;;;;;;3.17;1.60;;;;;15.80;100233.00;;;;10452960;28;20316;-77
2022/12/31 14:32:59;;;;;;;1.90;1.17;;;;;15.80;100230.00;;;;10488274;28;20205;-76
2022/12/31 14:38:18;;;;;;;3.35;1.48;;;;;15.80;100229.00;;;;10472814;28;20284;-77
2022/12/31 14:43:55;;;;;;;3.13;1.50;;;;;15.70;100223.00;;;;10527704;28;20197;-77
2022/12/31 14:49:00;;;;;;;3.78;1.27;;;;;15.60;100233.00;;;;10470924;28;20722;-77
2022/12/31 14:54:02;;;;;;;3.55;1.38;;;;;15.40;100210.00;;;;10504904;28;20197;-77
2022/12/31 14:59:23;;;;;;;2.10;1.20;;;;;15.30;100215.00;;;;10470563;28;20198;-77
2022/12/31 15:04:44;;;;;;;5.78;1.52;;;;;15.30;100210.00;;;;10470499;28;20177;-78
2022/12/31 15:10:02;;;;;;;1.67;1.00;;;;;15.30;100208.00;;;;10525504;28;20197;-77
2022/12/31 15:15:22;;;;;;;4.43;1.50;;;;;15.20;100205.00;;;;10493097;28;20227;-77
2022/12/31 15:20:58;;;;;;;2.67;1.48;;;;;15.10;100199.00;;;;10491333;28;20199;-77
2022/12/31 15:26:00;;;;;;;3.10;1.60;;;;;15.10;100217.00;;;;10509362;28;20263;-77
2022/12/31 15:31:19;;;;;;;5.50;1.50;;;;;15.10;100213.00;;;;10488745;28;20201;-77
2022/12/31 15:36:24;;;;;;;4.43;1.20;;;;;15.00;100243.00;;;;10468331;28;20200;-77
2022/12/31 15:41:45;;;;;;;3.25;1.27;;;;;15.10;100232.00;;;;10525154;28;20193;-77
2022/12/31 15:47:16;;;;;;;2.72;1.10;;;;;15.00;100204.00;;;;10508651;28;20676;-77
2022/12/31 15:52:32;;;;;;;7.00;1.33;;;;;14.90;100212.00;;;;10479007;28;20251;-77
2022/12/31 15:57:40;;;;;;;5.57;2.15;;;;;15.00;100200.00;;;;10465866;28;20288;-77
2022/12/31 16:02:42;;;;;;;3.75;1.58;;;;;14.90;100188.00;;;;10482471;28;20228;-77
2022/12/31 16:07:45;;;;;;;7.22;1.70;;;;;14.90;100190.00;;;;10494950;28;20193;-77
2022/12/31 16:12:48;;;;;;;7.72;1.60;;;;;14.80;100192.00;;;;10506918;28;20201;-77
2022/12/31 16:18:05;;;;;;;7.43;1.70;;;;;14.80;100177.00;;;;10506245;28;20583;-77
2022/12/31 16:23:24;;;;;;;5.07;1.48;;;;;14.70;100172.00;;;;10459068;28;20284;-77
2022/12/31 16:28:32;;;;;;;3.28;1.48;;;;;14.70;100165.00;;;;10448433;28;20221;-77
2022/12/31 16:33:33;;;;;;;6.13;1.50;;;;;14.60;100169.00;;;;10479174;28;20205;-77
2022/12/31 16:38:36;;;;;;;6.78;1.50;;;;;14.60;100159.00;;;;10482117;28;20278;-77
2022/12/31 16:43:41;;;;;;;9.32;1.45;;;;;14.60;100157.00;;;;10464524;28;20288;-77
2022/12/31 16:48:53;;;;;;;3.40;1.50;;;;;14.50;100155.00;;;;10463282;28;20192;-77
2022/12/31 16:53:57;;;;;;;2.78;1.27;;;;;14.50;100157.00;;;;10452013;28;20288;-76
2022/12/31 16:59:03;;;;;;;5.13;1.83;;;;;14.50;100153.00;;;;10464647;28;20166;-77
2022/12/31 17:04:09;;;;;;;3.90;1.45;;;;;14.50;100149.00;;;;10485509;28;20204;-77
2022/12/31 17:09:19;;;;;;;6.22;1.80;;;;;14.50;100147.00;;;;10468872;28;20201;-77
2022/12/31 17:14:29;;;;;;;6.78;1.60;;;;;14.60;100150.00;;;;10471662;28;20540;-77
2022/12/31 17:19:41;;;;;;;5.40;3.00;;;;;14.60;100134.00;;;;10503680;28;20656;-77
2022/12/31 17:24:47;;;;;;;9.02;1.70;;;;;14.50;100131.00;;;;10454061;28;20235;-77
2022/12/31 17:29:49;;;;;;;6.90;1.63;;;;;14.50;100132.00;;;;10462785;28;20219;-77
2022/12/31 17:34:51;;;;;;;3.38;1.40;;;;;14.50;100140.00;;;;10467100;28;20204;-77
2022/12/31 17:40:01;;;;;;;9.43;1.80;;;;;14.50;100128.00;;;;10444935;28;20281;-78
2022/12/31 17:45:23;;;;;;;8.57;2.08;;;;;14.50;100126.00;;;;10445006;28;20189;-78
2022/12/31 17:50:26;;;;;;;4.43;1.48;;;;;14.60;100124.00;;;;10465974;28;20220;-78
2022/12/31 17:55:28;;;;;;;3.63;1.60;;;;;14.60;100132.00;;;;10488130;28;20197;-78
2022/12/31 18:00:32;;;;;;;8.68;2.58;;;;;14.70;100129.00;;;;10451938;28;20620;-78
2022/12/31 18:05:34;;;;;;;4.75;1.88;;;;;14.70;100128.00;;;;10493954;28;20200;-78
2022/12/31 18:10:37;;;;;;;5.25;2.15;;;;;14.70;100142.00;;;;10528485;28;20532;-77
2022/12/31 18:15:39;;;;;;;9.60;1.77;;;;;14.70;100137.00;;;;10478374;28;20658;-76
2022/12/31 18:20:41;;;;;;;6.65;1.90;;;;;14.70;100140.00;;;;10490350;28;20188;-77
2022/12/31 18:25:43;;;;;;;8.25;2.30;;;;;14.90;100158.00;;;;10475536;28;20591;-77
2022/12/31 18:30:46;;;;;;;4.63;2.10;;;;;15.00;100163.00;;;;10510625;28;20209;-77
2022/12/31 18:35:49;;;;;;;6.45;1.60;;;;;15.10;100148.00;;;;10494124;28;20195;-77
2022/12/31 18:41:21;;;;;;;5.97;1.95;;;;;15.20;100178.00;;;;10470953;28;20200;-77
2022/12/31 18:46:24;;;;;;;6.53;2.53;;;;;15.10;100166.00;;;;10468776;28;20202;-78
2022/12/31 18:51:26;;;;;;;5.05;1.70;;;;;15.10;100176.00;;;;10451413;28;20734;-77
2022/12/31 18:56:33;;;;;;;3.38;1.95;;;;;15.10;100173.00;;;;10478672;28;20224;-77
2022/12/31 19:01:39;;;;;;;3.83;1.50;;;;;15.10;100186.00;;;;10458929;28;20196;-78
2022/12/31 19:06:42;;;;;;;3.17;1.52;;;;;15.10;100193.00;;;;10509232;28;20185;-77
2022/12/31 19:11:44;;;;;;;4.72;1.60;;;;;15.10;100211.00;;;;10482550;28;20675;-78
2022/12/31 19:16:47;;;;;;;3.75;1.85;;;;;15.10;100227.00;;;;10476576;28;20177;-77
2022/12/31 19:21:49;;;;;;;3.33;1.88;;;;;15.10;100211.00;;;;10485005;28;20518;-77
2022/12/31 19:26:52;;;;;;;5.13;1.45;;;;;15.20;100206.00;;;;10469795;28;20225;-78
2022/12/31 19:31:54;;;;;;;5.57;1.75;;;;;15.20;100237.00;;;;10466691;28;20734;-78
2022/12/31 19:36:56;;;;;;;5.75;2.22;;;;;15.20;100234.00;;;;10449539;28;20532;-77
2022/12/31 19:41:58;;;;;;;3.88;1.77;;;;;15.20;100231.00;;;;10451444;28;20742;-77
2022/12/31 19:47:01;;;;;;;4.88;1.90;;;;;15.10;100252.00;;;;10440302;28;20315;-77
2022/12/31 19:52:03;;;;;;;4.47;1.90;;;;;15.10;100251.00;;;;10467887;28;20701;-78
2022/12/31 19:57:05;;;;;;;10.00;2.00;;;;;15.00;100256.00;;;;10482222;28;20255;-78
2022/12/31 20:02:08;;;;;;;4.53;2.00;;;;;15.00;100256.00;;;;10478007;28;20190;-78
2022/12/31 20:07:11;;;;;;;5.03;1.85;;;;;15.00;100230.00;;;;10492575;28;20232;-77
2022/12/31 20:12:13;;;;;;;4.25;1.88;;;;;15.10;100279.00;;;;10474905;28;20189;-78
2022/12/31 20:17:15;;;;;;;6.18;1.70;;;;;15.10;100262.00;;;;10498146;28;20247;-77
2022/12/31 20:22:17;;;;;;;4.03;1.70;;;;;15.10;100266.00;;;;10492109;28;20226;-77
2022/12/31 20:27:19;;;;;;;4.25;1.75;;;;;15.10;100267.00;;;;10485471;28;20252;-77
2022/12/31 20:32:21;;;;;;;8.15;1.67;;;;;15.20;100263.00;;;;10509527;28;20211;-78
2022/12/31 20:37:23;;;;;;;2.92;1.70;;;;;15.10;100265.00;;;;10482973;28;20208;-77
2022/12/31 20:42:24;;;;;;;2.42;1.38;;;;;15.10;100268.00;;;;10467098;28;20648;-78
2022/12/31 20:47:26;;;;;;;3.45;1.98;;;;;15.00;100273.00;;;;10491881;28;20208;-77
2022/12/31 20:52:28;;;;;;;8.30;2.10;;;;;15.00;100288.00;;;;10490807;28;20299;-78
2022/12/31 20:57:31;;;;;;;4.43;2.42;;;;;15.00;100278.00;;;;10495714;28;20185;-78
2022/12/31 21:02:35;;;;;;;7.32;2.13;;;;;14.90;100276.00;;;;10499310;28;20272;-77
2022/12/31 21:07:43;;;;;;;7.60;1.73;;;;;14.90;100277.00;;;;10492861;28;20193;-78
2022/12/31 21:12:51;;;;;;;4.85;1.75;;;;;14.80;100277.00;;;;10495651;28;20263;-78
2022/12/31 21:17:54;;;;;;;3.67;1.60;;;;;14.90;100281.00;;;;10476493;28;20296;-78
2022/12/31 21:22:56;;;;;;;4.30;1.77;;;;;14.90;100296.00;;;;10466245;28;20239;-77
2022/12/31 21:27:58;;;;;;;4.25;2.63;;;;;15.00;100285.00;;;;10491941;28;20224;-78
2022/12/31 21:33:00;;;;;;;7.07;1.95;;;;;15.00;100312.00;;;;10476919;28;20271;-77
2022/12/31 21:38:06;;;;;;;6.03;2.75;;;;;15.10;100294.00;;;;10482890;28;20185;-77
2022/12/31 21:43:08;;;;;;;6.03;1.80;;;;;15.10;100292.00;;;;10477072;28;20205;-77
2022/12/31 21:48:23;;;;;;;5.53;1.95;;;;;15.10;100281.00;;;;10466004;28;20189;-77
2022/12/31 21:53:25;;;;;;;4.13;1.73;;;;;15.10;100297.00;;;;10491160;28;20204;-78
2022/12/31 21:58:42;;;;;;;10.32;2.10;;;;;15.10;100291.00;;;;10508082;28;20188;-77
2022/12/31 22:03:44;;;;;;;7.80;2.30;;;;;15.10;100286.00;;;;10464834;28;20199;-77
2022/12/31 22:08:49;;;;;;;7.95;2.10;;;;;15.10;100291.00;;;;10507366;28;20221;-78
2022/12/31 22:13:52;;;;;;;5.68;2.00;;;;;15.20;100305.00;;;;10491114;28;20208;-77
2022/12/31 22:18:55;;;;;;;5.65;1.75;;;;;15.40;100322.00;;;;10483248;28;20721;-78
2022/12/31 22:24:01;;;;;;;5.60;1.92;;;;;15.50;100298.00;;;;10450594;28;20194;-77
2022/12/31 22:29:03;;;;;;;3.00;1.15;;;;;15.50;100298.00;;;;10488397;28;20295;-77
2022/12/31 22:34:05;;;;;;;7.75;2.05;;;;;15.60;100308.00;;;;10487032;28;20202;-77
2022/12/31 22:39:13;;;;;;;6.32;2.20;;;;;15.60;100331.00;;;;10463094;28;20641;-77
2022/12/31 22:44:35;;;;;;;7.03;2.03;;;;;15.70;100336.00;;;;10446971;28;20209;-77
2022/12/31 22:49:37;;;;;;;3.75;1.73;;;;;15.70;100330.00;;;;10472240;28;20236;-78
2022/12/31 22:54:38;;;;;;;7.57;1.90;;;;;15.80;100347.00;;;;10461668;28;20201;-77
2022/12/31 22:59:42;;;;;;;7.75;2.40;;;;;15.70;100354.00;;;;10494970;28;20230;-78
2022/12/31 23:04:44;;;;;;;3.88;1.88;;;;;15.70;100351.00;;;;10468071;28;20269;-78
2022/12/31 23:25:51;;;;;;;5.80;2.53;;;;;15.70;100355.00;;;;10508479;28;20300;-78
2022/12/31 23:30:53;;;;;;;6.88;2.40;;;;;15.60;100357.00;;;;10468468;28;20233;-77
2022/12/31 23:36:05;;;;;;;2.65;2.03;;;;;15.50;100352.00;;;;10516637;28;20189;-77
2022/12/31 23:41:17;;;;;;;3.70;1.70;;;;;15.50;100365.00;;;;10503529;28;20288;-77
2022/12/31 23:46:19;;;;;;;5.18;2.20;;;;;15.40;100365.00;;;;10495690;28;20672;-77
2022/12/31 23:51:21;;;;;;;4.93;1.73;;;;;15.30;100384.00;;;;10479144;28;20208;-77
2022/12/31 23:56:23;;;;;;;5.05;1.75;;;;;15.30;100370.00;;;;10492034;28;20193;-78
